Terminal Aerodrome Forecast
Issued by NWS

Home | Current Version | Previous Version | Text Only | Print | Product List | Glossary On
Versions: 1 2 3 4 5 6 7 8 9 10 11 12 13 14 15 16 17
038
FTUS43 KJKL 221234 AAA
TAFSJS
TAF AMD
KSJS 221234Z 2213/2312 VRB03KT 5SM BR BKN003
     FM221330 VRB04KT P6SM SKC
     FM230800 VRB03KT 3SM BR SCT250=

USA.gov is the U.S. government's official web portal to all federal, state and local government web resources and services.